Huvudsida
METAR-TAF:

METAR-TAF

Flygplatser :

Memmingens flygplats

Memmingen, Tyskland

latitud: 47-59-33N, longitud: 10-14-37E, höjd: 633 m

Aktuellt väderrapport

Denna rapport gjordes för 24 minuter sedan, klockan 04:50 UTC
Vind 21 kt från sydväst i byarna ända upp till 34 kt
Temperatur 4°C
Fuktighet 65%
Tryck 1020 hPa
Sikt 10 km eller mer
Brutna moln på en höjd av 5500 ft

METAR: EDJA 190450Z 23021G34KT 9999 BKN055 04/M02 Q1020

Tid: 06:14 (05:14 UTC)

Väderprognos

Denna rapport gjordes för 12 timmar och 14 minuter sedan, klockan 17:00 UTC
Prognos gäller från 18 kl. 18 UTC till 19 kl. 03 UTC
Vind 8 kt från väst
Sikt 10 km eller mer
Spridda moln på en höjd av 6000 ft

TAF: EDJA 181700Z 1818/1903 26008KT 9999 SCT060

Aktuella väderrapporter och prognoser från 4000 flygplatser (METAR- och TAF-rapporter).

De tillgängliga stationerna syns som gula och röda prickar på kartan.

För musen över prickarna för att se namnen på stationerna.

Klicka sedan för att få väderrapporter och prognoser.

För att ändra kartan: Klicka på de gröna knapparna med ett svart kors på för att zooma in; den gröna knappen med ett streck på för att zooma ut; eller på de gröna pilarna för angränsande kartor.


METAR-TAF: